Time;durP1;ratioP1;P1;durP2;ratioP2;P2;SDS_P1;SDS_P2;PMS_P1;PMS_P2;Temp;Humidity;BMP_temperature;BMP_pressure;BME280_temperature;BME280_humidity;BME280_pressure;Samples;Min_cycle;Max_cycle;Signal;HPM_P1;HPM_P2
2021/06/09 00:00:16;;;;;;;10.40;6.80;;;;;;;17.46;100.00;99536.00;10501797;28;20171;-80
2021/06/09 00:05:35;;;;;;;11.40;7.20;;;;;;;17.58;100.00;99524.97;10501643;28;20171;-80
2021/06/09 00:10:55;;;;;;;14.10;6.67;;;;;;;17.57;100.00;99530.19;10499781;28;20684;-78
2021/06/09 00:16:19;;;;;;;8.47;5.93;;;;;;;17.45;100.00;99528.88;10501063;28;20170;-79
2021/06/09 00:21:38;;;;;;;8.70;6.53;;;;;;;17.39;100.00;99529.84;10500827;28;20171;-79
2021/06/09 00:26:57;;;;;;;10.50;6.80;;;;;;;17.46;100.00;99522.09;10499351;28;20167;-78
2021/06/09 00:32:16;;;;;;;8.03;6.40;;;;;;;17.31;100.00;99518.09;10499586;28;20309;-78
2021/06/09 00:37:35;;;;;;;12.07;6.43;;;;;;;17.32;100.00;99516.09;10498786;28;20244;-78
2021/06/09 00:43:03;;;;;;;10.03;6.30;;;;;;;17.36;100.00;99516.78;10500053;28;20171;-78
2021/06/09 00:48:26;;;;;;;8.50;7.03;;;;;;;17.38;100.00;99506.78;10499792;28;20175;-80
2021/06/09 00:53:59;;;;;;;10.03;6.13;;;;;;;17.41;100.00;99516.25;10496589;28;20202;-79
2021/06/09 00:59:17;;;;;;;9.07;6.03;;;;;;;17.44;100.00;99507.84;10499404;28;20167;-77
2021/06/09 01:04:36;;;;;;;12.07;7.80;;;;;;;17.47;100.00;99509.75;10499167;28;20179;-78
2021/06/09 01:09:55;;;;;;;11.60;7.70;;;;;;;17.68;100.00;99521.13;10496556;28;20207;-78
2021/06/09 01:15:15;;;;;;;24.60;8.60;;;;;;;17.68;100.00;99514.81;10498868;28;20178;-78
2021/06/09 01:20:35;;;;;;;11.00;8.53;;;;;;;17.55;100.00;99510.38;10497050;28;20167;-76
2021/06/09 01:25:56;;;;;;;9.73;6.20;;;;;;;17.50;100.00;99503.31;10497110;28;20222;-77
2021/06/09 01:31:16;;;;;;;12.00;8.17;;;;;;;17.47;100.00;99504.19;10497964;28;20673;-77
2021/06/09 01:36:36;;;;;;;10.20;6.87;;;;;;;17.49;100.00;99506.53;10496461;28;20578;-77
2021/06/09 01:41:55;;;;;;;10.57;8.07;;;;;;;17.69;100.00;99517.13;10496901;28;20175;-77
2021/06/09 01:47:15;;;;;;;8.97;6.27;;;;;;;17.60;100.00;99513.41;10497201;28;20183;-76
2021/06/09 01:52:35;;;;;;;11.30;8.10;;;;;;;17.50;100.00;99514.47;10495994;28;20206;-77
2021/06/09 01:57:54;;;;;;;12.23;7.90;;;;;;;17.44;100.00;99518.19;10496685;28;20175;-77
2021/06/09 02:03:15;;;;;;;11.33;7.60;;;;;;;17.47;100.00;99515.31;10496460;28;20636;-78
2021/06/09 02:08:34;;;;;;;13.30;8.40;;;;;;;17.45;100.00;99516.97;10496460;28;20639;-78
2021/06/09 02:13:53;;;;;;;12.20;8.83;;;;;;;17.41;100.00;99514.28;10496835;28;20230;-78
2021/06/09 02:19:13;;;;;;;11.87;7.87;;;;;;;17.43;100.00;99522.19;10496263;28;20253;-78
2021/06/09 02:24:32;;;;;;;9.77;7.80;;;;;;;17.42;100.00;99518.63;10509258;28;20178;-78
2021/06/09 02:29:51;;;;;;;11.57;7.83;;;;;;;17.44;100.00;99520.97;10496818;28;20202;-77
2021/06/09 02:35:14;;;;;;;19.73;8.03;;;;;;;17.40;100.00;99517.50;10495217;28;20215;-79
2021/06/09 02:40:34;;;;;;;14.40;8.57;;;;;;;17.39;100.00;99510.38;10494330;28;20171;-78
2021/06/09 02:45:53;;;;;;;11.50;8.00;;;;;;;17.34;100.00;99505.31;10496732;28;20693;-78
2021/06/09 02:51:17;;;;;;;14.87;8.17;;;;;;;17.31;100.00;99508.97;10495354;28;20245;-77
2021/06/09 02:56:45;;;;;;;14.57;8.73;;;;;;;17.32;100.00;99502.97;10498324;28;20178;-78
2021/06/09 03:02:16;;;;;;;14.33;8.10;;;;;;;17.30;100.00;99510.19;10503076;28;20170;-78
2021/06/09 03:07:53;;;;;;;14.77;8.60;;;;;;;17.24;100.00;99509.88;10501377;28;20171;-77
2021/06/09 03:13:28;;;;;;;10.07;7.80;;;;;;;17.20;100.00;99508.41;10502050;28;20248;-79
2021/06/09 03:18:50;;;;;;;12.97;7.63;;;;;;;17.18;100.00;99508.06;10502389;28;20175;-77
2021/06/09 03:24:19;;;;;;;11.33;7.97;;;;;;;17.17;100.00;99512.84;10500628;28;20178;-76
2021/06/09 03:29:50;;;;;;;16.30;8.63;;;;;;;17.16;100.00;99514.06;10501978;28;20203;-79
2021/06/09 03:35:26;;;;;;;14.03;8.30;;;;;;;17.14;100.00;99510.91;10502157;28;20610;-77
2021/06/09 03:40:47;;;;;;;14.23;9.27;;;;;;;17.09;100.00;99516.19;10501233;28;20179;-78
2021/06/09 03:46:07;;;;;;;15.10;9.60;;;;;;;17.11;100.00;99520.13;10502565;28;20179;-76
2021/06/09 03:51:29;;;;;;;12.37;7.47;;;;;;;17.11;100.00;99522.91;10502042;28;20478;-79
2021/06/09 03:56:51;;;;;;;15.43;9.20;;;;;;;17.04;100.00;99514.72;10500226;28;20162;-77
2021/06/09 04:02:09;;;;;;;16.37;9.93;;;;;;;16.97;100.00;99523.22;10501656;28;20647;-78
2021/06/09 04:07:30;;;;;;;10.93;8.67;;;;;;;16.94;100.00;99526.88;10499568;28;20207;-78
2021/06/09 04:12:49;;;;;;;12.10;7.87;;;;;;;16.89;100.00;99523.81;10500832;28;20199;-80
2021/06/09 04:18:09;;;;;;;12.80;9.10;;;;;;;16.96;100.00;99521.66;10500129;28;20167;-77
2021/06/09 04:23:28;;;;;;;11.47;7.83;;;;;;;17.06;100.00;99525.41;10499812;28;20167;-79
2021/06/09 04:28:49;;;;;;;15.93;7.93;;;;;;;17.11;100.00;99527.69;10500839;28;20267;-76
2021/06/09 04:34:08;;;;;;;9.40;6.70;;;;;;;17.12;100.00;99530.03;10498778;28;20230;-76
2021/06/09 04:39:27;;;;;;;18.87;8.30;;;;;;;17.22;100.00;99529.00;10497603;28;20171;-77
2021/06/09 04:44:46;;;;;;;12.17;8.73;;;;;;;17.39;100.00;99527.06;10498910;28;20174;-77
2021/06/09 04:50:05;;;;;;;8.00;6.27;;;;;;;17.56;100.00;99526.63;10499460;28;20285;-78
2021/06/09 04:55:24;;;;;;;14.23;8.80;;;;;;;17.74;100.00;99529.75;10496502;28;20190;-78
2021/06/09 05:00:45;;;;;;;10.43;7.63;;;;;;;17.98;100.00;99537.44;10498453;28;20194;-76
2021/06/09 05:06:04;;;;;;;10.57;6.10;;;;;;;18.18;100.00;99532.53;10497385;28;20183;-77
2021/06/09 05:11:33;;;;;;;9.70;7.67;;;;;;;18.38;100.00;99524.84;10497379;28;20210;-79
2021/06/09 05:16:55;;;;;;;13.90;7.43;;;;;;;18.55;100.00;99529.13;10498507;28;20206;-77
2021/06/09 05:22:25;;;;;;;10.17;7.60;;;;;;;18.60;100.00;99531.41;10496284;28;20587;-77
2021/06/09 05:27:44;;;;;;;13.80;8.17;;;;;;;18.74;100.00;99536.56;10498474;28;20617;-76
2021/06/09 05:33:04;;;;;;;10.93;7.73;;;;;;;18.84;100.00;99530.66;10496834;28;20229;-76
2021/06/09 05:38:24;;;;;;;9.90;7.93;;;;;;;18.92;100.00;99537.59;10496870;28;20174;-77
2021/06/09 05:43:44;;;;;;;8.50;6.70;;;;;;;19.04;100.00;99538.81;10498040;28;20179;-77
2021/06/09 05:49:03;;;;;;;11.10;8.10;;;;;;;19.17;100.00;99548.78;10497059;28;20675;-76
2021/06/09 05:54:22;;;;;;;13.73;8.30;;;;;;;19.33;100.00;99555.06;10495863;28;20202;-76
2021/06/09 05:59:42;;;;;;;9.60;7.87;;;;;;;19.43;100.00;99548.34;10496691;28;20617;-77
2021/06/09 06:05:02;;;;;;;9.67;7.10;;;;;;;19.50;100.00;99547.34;10497568;28;20183;-76
2021/06/09 06:10:21;;;;;;;15.40;8.50;;;;;;;19.55;100.00;99547.56;10496011;28;20214;-77
2021/06/09 06:15:41;;;;;;;10.00;7.13;;;;;;;19.74;100.00;99546.56;10495982;28;20543;-76
2021/06/09 06:21:01;;;;;;;11.83;9.03;;;;;;;19.84;100.00;99553.00;10494611;28;20214;-76
2021/06/09 06:26:21;;;;;;;10.23;7.13;;;;;;;19.93;100.00;99550.31;10500816;28;20266;-76
2021/06/09 06:31:40;;;;;;;19.03;9.77;;;;;;;19.98;100.00;99555.34;10498972;28;20234;-77
2021/06/09 06:37:00;;;;;;;12.10;8.87;;;;;;;20.10;100.00;99550.53;10502724;28;20195;-76
2021/06/09 06:42:20;;;;;;;16.30;10.50;;;;;;;20.20;100.00;99552.16;10504772;28;20633;-78
2021/06/09 06:47:40;;;;;;;12.13;8.60;;;;;;;20.33;100.00;99546.50;10504782;28;20175;-77
2021/06/09 06:53:04;;;;;;;14.60;8.90;;;;;;;20.56;100.00;99546.88;10501758;28;20225;-77
2021/06/09 06:58:23;;;;;;;12.43;8.47;;;;;;;20.91;100.00;99556.78;10504236;28;20179;-77
2021/06/09 07:03:43;;;;;;;14.43;9.00;;;;;;;21.08;100.00;99558.13;10502835;28;20178;-76
2021/06/09 07:09:03;;;;;;;15.27;9.20;;;;;;;21.31;100.00;99555.56;10502399;28;20179;-75
2021/06/09 07:14:27;;;;;;;13.57;8.63;;;;;;;21.49;100.00;99552.06;10500956;28;20210;-76
2021/06/09 07:19:47;;;;;;;21.20;9.70;;;;;;;21.19;100.00;99552.88;10502324;28;20648;-76
2021/06/09 07:25:08;;;;;;;12.70;9.00;;;;;;;21.09;100.00;99554.84;10502152;28;20620;-80
2021/06/09 07:30:30;;;;;;;14.73;9.00;;;;;;;21.02;100.00;99555.13;10501722;28;20238;-77
2021/06/09 07:35:50;;;;;;;16.07;8.90;;;;;;;21.32;100.00;99556.38;10502061;28;20211;-79
2021/06/09 07:41:11;;;;;;;10.00;7.57;;;;;;;21.54;100.00;99565.47;10500873;28;20179;-76
2021/06/09 07:46:32;;;;;;;10.10;7.67;;;;;;;21.48;100.00;99567.31;10501638;28;20187;-76
2021/06/09 07:51:51;;;;;;;16.33;8.53;;;;;;;22.24;100.00;99566.16;10501044;28;20214;-77
2021/06/09 07:57:12;;;;;;;12.20;7.57;;;;;;;23.12;100.00;99575.00;10501931;28;20205;-76
2021/06/09 08:02:34;;;;;;;14.97;8.03;;;;;;;23.66;100.00;99576.41;10501513;28;20182;-76
2021/06/09 08:07:54;;;;;;;13.40;9.20;;;;;;;24.35;100.00;99576.94;10497905;28;20186;-77
2021/06/09 08:13:13;;;;;;;11.73;8.07;;;;;;;24.80;100.00;99579.38;10500581;28;20202;-79
2021/06/09 08:18:32;;;;;;;11.63;7.77;;;;;;;25.17;97.03;99590.63;10500030;28;20175;-78
2021/06/09 08:23:52;;;;;;;7.80;5.70;;;;;;;25.83;72.71;99597.38;10499819;28;20186;-77
2021/06/09 08:29:12;;;;;;;7.93;5.57;;;;;;;26.01;64.68;99578.19;10498726;28;20187;-78
2021/06/09 08:34:32;;;;;;;6.67;6.07;;;;;;;26.72;65.00;99596.06;10500162;28;20226;-77
2021/06/09 08:39:50;;;;;;;5.93;5.30;;;;;;;26.21;61.17;99586.63;10499202;28;20178;-78
2021/06/09 08:45:11;;;;;;;6.87;5.90;;;;;;;26.56;66.23;99586.63;10500104;28;20174;-77
2021/06/09 08:50:32;;;;;;;9.50;5.87;;;;;;;27.22;62.20;99586.06;10512925;28;20660;-76
2021/06/09 08:55:51;;;;;;;4.90;4.40;;;;;;;28.18;54.35;99593.53;10497944;28;20257;-76
2021/06/09 09:01:12;;;;;;;5.80;5.10;;;;;;;28.83;52.60;99588.22;10499148;28;20166;-76
2021/06/09 09:06:31;;;;;;;6.93;5.50;;;;;;;29.01;55.19;99581.28;10499006;28;20175;-75
2021/06/09 09:11:51;;;;;;;7.13;5.27;;;;;;;27.31;57.77;99583.06;10497416;28;20218;-75
2021/06/09 09:17:12;;;;;;;6.30;5.40;;;;;;;27.97;59.38;99584.41;10498692;28;20182;-76
2021/06/09 09:22:36;;;;;;;5.50;4.50;;;;;;;28.58;54.80;99582.66;10496372;28;20636;-78
2021/06/09 09:28:02;;;;;;;6.47;5.67;;;;;;;27.92;54.35;99575.88;10498489;28;20175;-77
2021/06/09 09:33:21;;;;;;;7.23;6.53;;;;;;;28.49;52.27;99580.84;10497436;28;20222;-76
2021/06/09 09:38:41;;;;;;;6.00;5.40;;;;;;;29.82;51.53;99571.28;10495834;28;20170;-77
2021/06/09 09:44:02;;;;;;;7.50;6.40;;;;;;;29.31;51.77;99580.31;10496811;28;20187;-78
2021/06/09 09:49:22;;;;;;;7.70;6.47;;;;;;;28.78;54.20;99591.00;10497176;28;20194;-76
2021/06/09 09:54:44;;;;;;;6.43;5.23;;;;;;;28.97;54.42;99580.75;10496269;28;20175;-75
2021/06/09 10:00:06;;;;;;;8.30;7.27;;;;;;;28.64;57.69;99572.91;10497609;28;20179;-76
2021/06/09 10:05:25;;;;;;;7.80;6.47;;;;;;;28.09;53.39;99568.25;10495461;28;20178;-76
2021/06/09 10:10:44;;;;;;;6.20;5.57;;;;;;;27.37;56.20;99569.78;10495997;28;20301;-76
2021/06/09 10:16:19;;;;;;;8.87;6.70;;;;;;;26.72;55.55;99579.13;10497379;28;20174;-76
2021/06/09 10:21:51;;;;;;;7.00;6.30;;;;;;;26.63;56.65;99573.63;10497196;28;20179;-76
2021/06/09 10:27:11;;;;;;;7.37;5.50;;;;;;;27.09;56.16;99571.56;10497191;28;20605;-76
2021/06/09 10:32:31;;;;;;;6.23;5.63;;;;;;;28.33;53.76;99578.72;10496505;28;20238;-77
2021/06/09 10:37:52;;;;;;;8.60;6.50;;;;;;;28.38;52.81;99569.47;10494718;28;20205;-77
2021/06/09 10:43:12;;;;;;;8.70;5.80;;;;;;;30.03;50.61;99557.09;10496780;28;20174;-78
2021/06/09 10:48:34;;;;;;;6.27;5.63;;;;;;;31.08;47.54;99568.78;10496548;28;20196;-78
2021/06/09 10:53:56;;;;;;;7.57;6.73;;;;;;;30.72;50.38;99549.34;10493506;28;20207;-78
2021/06/09 10:59:17;;;;;;;6.60;5.97;;;;;;;31.87;44.28;99550.03;10496298;28;20195;-77
2021/06/09 11:04:40;;;;;;;6.30;5.80;;;;;;;32.84;43.21;99546.56;10496741;28;20175;-78
2021/06/09 11:10:09;;;;;;;6.40;5.70;;;;;;;31.48;44.18;99548.81;10493744;28;20206;-77
2021/06/09 11:15:35;;;;;;;6.90;6.20;;;;;;;30.03;48.17;99536.44;10496140;28;20183;-76
2021/06/09 11:20:58;;;;;;;6.47;5.87;;;;;;;29.93;52.04;99523.06;10502467;28;20183;-77
2021/06/09 11:26:36;;;;;;;10.93;6.40;;;;;;;29.39;50.95;99521.84;10502015;28;20653;-77
2021/06/09 11:32:22;;;;;;;9.50;6.03;;;;;;;29.56;49.59;99497.06;10502494;28;20194;-77
2021/06/09 11:37:44;;;;;;;8.27;7.50;;;;;;;28.99;51.31;99496.81;10501602;28;20174;-77
2021/06/09 11:43:37;;;;;;;6.73;5.93;;;;;;;28.79;54.13;99507.59;10502666;28;20633;-78
2021/06/09 11:48:59;;;;;;;6.70;6.00;;;;;;;29.48;49.59;99510.22;10501014;28;20191;-78
2021/06/09 11:54:29;;;;;;;10.07;7.53;;;;;;;28.02;53.07;99500.84;10499907;28;20580;-77
2021/06/09 11:59:50;;;;;;;7.30;6.60;;;;;;;28.30;53.21;99486.31;10501743;28;20535;-76
2021/06/09 12:05:19;;;;;;;7.50;6.23;;;;;;;26.91;55.88;99481.50;10501491;28;20171;-75
2021/06/09 12:10:39;;;;;;;9.70;7.07;;;;;;;28.11;53.61;99481.59;10500109;28;20211;-77
2021/06/09 12:16:21;;;;;;;5.90;5.30;;;;;;;27.82;54.29;99489.69;10501390;28;20265;-76
2021/06/09 12:21:43;;;;;;;5.80;5.20;;;;;;;27.75;56.25;99498.63;10501264;28;20177;-76
2021/06/09 12:27:08;;;;;;;6.20;5.60;;;;;;;28.13;55.28;99475.41;10499803;28;20262;-76
2021/06/09 12:32:32;;;;;;;8.60;7.23;;;;;;;28.05;55.71;99472.31;10499708;28;20266;-76
2021/06/09 12:37:55;;;;;;;6.57;5.87;;;;;;;27.62;54.55;99461.56;10498266;28;20171;-76
2021/06/09 12:43:14;;;;;;;22.47;9.57;;;;;;;27.47;56.43;99466.56;10499172;28;20171;-76
2021/06/09 12:48:37;;;;;;;9.30;7.77;;;;;;;27.18;59.89;99463.28;10500085;28;20170;-76
2021/06/09 12:53:56;;;;;;;6.83;6.23;;;;;;;25.57;67.06;99454.75;10497900;28;20210;-76
2021/06/09 12:59:32;;;;;;;7.60;5.87;;;;;;;25.58;69.05;99448.63;10499662;28;20179;-76
2021/06/09 13:04:52;;;;;;;7.90;6.77;;;;;;;25.32;69.76;99444.91;10499461;28;20174;-76
2021/06/09 13:10:12;;;;;;;8.50;6.80;;;;;;;25.25;71.51;99444.53;10495430;28;20226;-76
2021/06/09 13:15:32;;;;;;;10.40;7.00;;;;;;;25.53;70.40;99457.00;10498848;28;20534;-75
2021/06/09 13:20:51;;;;;;;8.20;6.70;;;;;;;25.67;71.74;99462.59;10498583;28;20178;-75
2021/06/09 13:26:13;;;;;;;6.67;6.00;;;;;;;26.04;71.99;99474.88;10497338;28;20198;-74
2021/06/09 13:31:32;;;;;;;9.37;6.10;;;;;;;25.54;75.52;99476.22;10497916;28;20665;-75
2021/06/09 13:36:58;;;;;;;7.53;6.83;;;;;;;25.55;76.25;99469.31;10498150;28;20187;-76
2021/06/09 13:42:29;;;;;;;9.40;7.63;;;;;;;25.61;74.38;99475.81;10497138;28;20603;-75
2021/06/09 13:48:00;;;;;;;7.10;6.50;;;;;;;26.15;74.04;99491.94;10496857;28;20179;-76
2021/06/09 13:53:19;;;;;;;7.43;6.30;;;;;;;26.63;70.19;99491.78;10495163;28;20206;-75
2021/06/09 13:58:38;;;;;;;8.53;6.70;;;;;;;26.96;69.21;99494.91;10496658;28;20171;-76
2021/06/09 14:03:57;;;;;;;10.27;5.70;;;;;;;26.69;64.51;99506.72;10496541;28;20179;-76
2021/06/09 14:09:16;;;;;;;3.80;3.50;;;;;;;26.06;57.85;99501.31;10496296;28;20171;-77
2021/06/09 14:14:38;;;;;;;3.50;3.20;;;;;;;25.66;52.90;99494.84;10496772;28;20603;-77
2021/06/09 14:20:07;;;;;;;2.50;2.30;;;;;;;25.08;50.72;99478.06;10496267;28;20178;-75
2021/06/09 14:25:32;;;;;;;2.73;1.90;;;;;;;25.07;50.83;99465.22;10494850;28;20579;-75
2021/06/09 14:30:54;;;;;;;2.83;2.60;;;;;;;25.01;49.46;99441.84;10496928;28;20206;-75
2021/06/09 14:36:25;;;;;;;2.27;1.90;;;;;;;24.81;51.59;99420.50;10495135;28;20222;-74
2021/06/09 14:41:46;;;;;;;3.37;1.87;;;;;;;25.16;51.74;99430.59;10495649;28;20183;-74
2021/06/09 14:52:38;;;;;;;8.40;2.50;;;;;;;25.36;50.46;99441.91;10496270;28;20210;-75
2021/06/09 14:58:01;;;;;;;2.70;2.47;;;;;;;26.23;50.15;99431.78;10517778;28;20186;-75
2021/06/09 15:03:20;;;;;;;3.07;2.87;;;;;;;27.04;47.38;99438.75;10504229;28;20178;-75
2021/06/09 15:08:39;;;;;;;3.60;3.03;;;;;;;27.67;47.29;99435.34;10501659;28;20656;-75
2021/06/09 15:13:59;;;;;;;2.70;2.50;;;;;;;28.58;43.64;99433.38;10503048;28;20288;-75
2021/06/09 15:19:18;;;;;;;3.10;2.80;;;;;;;29.59;41.06;99428.75;10503568;28;20253;-77
2021/06/09 15:24:37;;;;;;;2.80;2.60;;;;;;;29.58;39.42;99420.72;10501895;28;20187;-76
2021/06/09 15:29:57;;;;;;;2.10;1.90;;;;;;;30.08;38.76;99419.31;10503004;28;20583;-76
2021/06/09 15:35:16;;;;;;;2.20;2.00;;;;;;;30.12;37.86;99426.25;10515991;28;20214;-76
2021/06/09 15:40:35;;;;;;;2.60;2.40;;;;;;;28.73;39.54;99436.75;10501458;28;20186;-77
2021/06/09 15:45:54;;;;;;;2.77;2.30;;;;;;;28.28;42.00;99437.94;10502710;28;20261;-77
2021/06/09 15:51:14;;;;;;;2.33;2.13;;;;;;;27.22;44.14;99452.50;10502122;28;20858;-77
2021/06/09 15:56:33;;;;;;;4.10;2.80;;;;;;;27.12;45.54;99456.78;10500952;28;20183;-76
2021/06/09 16:01:52;;;;;;;2.30;2.10;;;;;;;27.58;46.69;99441.19;10501912;28;20183;-76
2021/06/09 16:07:13;;;;;;;2.53;2.33;;;;;;;27.69;45.00;99441.28;10499905;28;20191;-76
2021/06/09 16:12:33;;;;;;;2.60;2.40;;;;;;;27.62;45.37;99442.53;10500118;28;20210;-77
2021/06/09 16:17:52;;;;;;;2.90;2.70;;;;;;;27.50;44.10;99438.03;10514707;28;20186;-77
2021/06/09 16:23:11;;;;;;;2.50;2.30;;;;;;;26.19;49.80;99441.72;10498890;28;20174;-76
2021/06/09 16:28:30;;;;;;;2.10;1.90;;;;;;;26.17;52.12;99453.50;10500818;28;20183;-75
2021/06/09 16:33:49;;;;;;;3.57;3.27;;;;;;;25.98;56.31;99465.59;10498956;28;20616;-75
2021/06/09 16:39:07;;;;;;;2.97;2.77;;;;;;;25.79;59.39;99463.53;10498068;28;20171;-77
2021/06/09 16:44:26;;;;;;;3.77;3.37;;;;;;;25.37;58.69;99461.13;10498567;28;20251;-75
2021/06/09 16:49:45;;;;;;;3.53;3.17;;;;;;;25.39;58.93;99450.13;10499956;28;20636;-77
2021/06/09 17:00:27;;;;;;;4.10;3.70;;;;;;;25.41;60.49;99432.75;10498738;28;20179;-76
2021/06/09 17:05:47;;;;;;;4.50;3.43;;;;;;;25.56;59.72;99425.78;10499432;28;20633;-76
2021/06/09 17:11:07;;;;;;;5.33;4.70;;;;;;;25.49;60.88;99434.66;10497818;28;20206;-75
2021/06/09 17:16:27;;;;;;;4.60;4.20;;;;;;;25.22;63.20;99445.53;10498699;28;20254;-75
2021/06/09 17:21:47;;;;;;;4.13;3.70;;;;;;;25.42;62.71;99435.09;10498743;28;20171;-75
2021/06/09 17:27:06;;;;;;;3.87;3.57;;;;;;;26.05;61.09;99429.25;10498406;28;20653;-75
2021/06/09 17:32:25;;;;;;;3.73;3.40;;;;;;;26.27;59.33;99434.38;10497896;28;20234;-75
2021/06/09 17:37:49;;;;;;;3.80;3.50;;;;;;;26.82;56.77;99430.09;10496868;28;20175;-75
2021/06/09 17:43:09;;;;;;;4.17;3.50;;;;;;;26.34;57.78;99431.13;10498343;28;20179;-76
2021/06/09 17:48:28;;;;;;;5.10;4.33;;;;;;;25.54;61.21;99424.75;10498089;28;20210;-74
2021/06/09 17:53:47;;;;;;;4.40;4.00;;;;;;;24.47;65.58;99430.44;10496271;28;20198;-74
2021/06/09 17:59:07;;;;;;;5.13;4.63;;;;;;;24.42;66.16;99430.28;10497471;28;20175;-77
2021/06/09 18:04:26;;;;;;;5.43;4.37;;;;;;;24.23;65.62;99445.81;10496397;28;20174;-75
2021/06/09 18:09:46;;;;;;;5.50;4.47;;;;;;;24.07;66.00;99449.03;10496094;28;20540;-76
2021/06/09 18:15:06;;;;;;;5.43;4.93;;;;;;;23.90;66.47;99462.00;10496177;28;20218;-75
2021/06/09 18:20:25;;;;;;;6.80;4.50;;;;;;;22.96;76.23;99468.69;10497114;28;20674;-75
2021/06/09 18:25:45;;;;;;;5.57;4.80;;;;;;;22.70;74.93;99464.69;10494798;28;20524;-75
2021/06/09 18:31:04;;;;;;;3.73;3.40;;;;;;;22.56;73.79;99487.81;10505168;28;20675;-75
2021/06/09 18:36:23;;;;;;;2.63;2.40;;;;;;;22.56;69.54;99493.41;10504407;28;20249;-76
2021/06/09 18:41:42;;;;;;;5.80;3.13;;;;;;;22.43;70.12;99492.81;10503704;28;20175;-77
2021/06/09 18:47:02;;;;;;;2.47;2.27;;;;;;;22.30;71.14;99494.19;10504855;28;20174;-76
2021/06/09 18:52:21;;;;;;;2.83;2.30;;;;;;;22.20;72.36;99490.63;10502866;28;20206;-76
2021/06/09 18:57:41;;;;;;;3.40;2.53;;;;;;;21.97;73.87;99485.59;10517642;28;20179;-75
2021/06/09 19:03:03;;;;;;;3.90;3.50;;;;;;;21.81;77.58;99497.09;10503044;28;20206;-77
2021/06/09 19:08:24;;;;;;;4.20;3.80;;;;;;;21.82;80.13;99500.72;10502695;28;20183;-77
2021/06/09 19:13:43;;;;;;;5.53;3.87;;;;;;;21.68;82.62;99498.50;10503248;28;20207;-76
2021/06/09 19:19:03;;;;;;;6.30;4.57;;;;;;;21.57;88.47;99505.75;10503844;28;20204;-76
2021/06/09 19:24:22;;;;;;;6.77;5.40;;;;;;;21.37;92.85;99513.78;10500809;28;20175;-75
2021/06/09 19:29:42;;;;;;;5.43;4.80;;;;;;;21.18;92.61;99512.94;10503177;28;20621;-76
2021/06/09 19:35:02;;;;;;;8.13;4.30;;;;;;;21.11;99.77;99518.00;10502321;28;20230;-75
2021/06/09 19:40:22;;;;;;;5.30;4.83;;;;;;;20.86;100.00;99507.00;10500218;28;20182;-75
2021/06/09 19:45:41;;;;;;;4.73;4.30;;;;;;;20.81;100.00;99515.19;10502618;28;20171;-75
2021/06/09 19:51:00;;;;;;;5.30;4.77;;;;;;;20.45;100.00;99523.31;10502017;28;20653;-76
2021/06/09 19:56:20;;;;;;;4.20;3.80;;;;;;;20.20;100.00;99521.41;10500948;28;20182;-77
2021/06/09 20:01:40;;;;;;;6.60;4.50;;;;;;;20.16;100.00;99526.34;10501904;28;20179;-77
2021/06/09 20:06:59;;;;;;;6.20;4.30;;;;;;;20.06;100.00;99523.94;10500887;28;20250;-75
2021/06/09 20:12:18;;;;;;;3.97;3.60;;;;;;;19.74;100.00;99520.63;10501339;28;20664;-76
2021/06/09 20:17:37;;;;;;;7.47;4.30;;;;;;;19.64;100.00;99518.97;10501327;28;20567;-76
2021/06/09 20:22:58;;;;;;;5.03;3.90;;;;;;;19.65;100.00;99517.75;10499734;28;20175;-76
2021/06/09 20:28:18;;;;;;;5.73;3.87;;;;;;;19.59;100.00;99516.75;10514144;28;20171;-75
2021/06/09 20:33:37;;;;;;;5.97;5.10;;;;;;;19.16;100.00;99524.16;10500256;28;20238;-75
2021/06/09 20:38:56;;;;;;;5.53;3.97;;;;;;;18.91;100.00;99519.28;10499086;28;20625;-74
2021/06/09 20:44:19;;;;;;;5.87;3.13;;;;;;;18.75;100.00;99501.88;10499235;28;20170;-75
2021/06/09 20:49:38;;;;;;;4.60;3.77;;;;;;;18.69;100.00;99500.88;10512769;28;20171;-76
2021/06/09 20:54:57;;;;;;;4.43;3.87;;;;;;;18.64;100.00;99501.41;10497005;28;20202;-75
2021/06/09 21:00:17;;;;;;;4.40;3.17;;;;;;;18.52;100.00;99508.50;10499651;28;20183;-76
2021/06/09 21:05:38;;;;;;;6.37;4.60;;;;;;;18.40;100.00;99516.06;10498346;28;20206;-75
2021/06/09 21:10:57;;;;;;;5.63;4.23;;;;;;;18.37;100.00;99517.72;10497800;28;20202;-76
2021/06/09 21:16:16;;;;;;;6.20;5.10;;;;;;;18.28;100.00;99519.56;10498855;28;20638;-77
2021/06/09 21:21:36;;;;;;;5.10;3.77;;;;;;;18.14;100.00;99515.13;10498919;28;20621;-75
2021/06/09 21:26:55;;;;;;;4.43;4.00;;;;;;;18.10;100.00;99535.94;10497456;28;20641;-76
2021/06/09 21:32:14;;;;;;;5.13;3.27;;;;;;;18.17;100.00;99525.41;10498119;28;20582;-75
2021/06/09 21:37:34;;;;;;;5.80;4.13;;;;;;;18.32;100.00;99520.28;10496897;28;20629;-75
2021/06/09 21:42:52;;;;;;;5.27;4.37;;;;;;;18.08;100.00;99527.28;10497164;28;20175;-75
2021/06/09 21:48:11;;;;;;;4.90;4.40;;;;;;;18.01;100.00;99535.81;10497943;28;20179;-77
2021/06/09 21:53:30;;;;;;;5.70;3.50;;;;;;;18.11;100.00;99529.97;10496075;28;20277;-75
2021/06/09 21:58:49;;;;;;;5.47;4.70;;;;;;;17.77;100.00;99534.44;10496711;28;20183;-74
2021/06/09 22:04:08;;;;;;;5.53;4.23;;;;;;;17.53;100.00;99523.94;10496862;28;20253;-76
2021/06/09 22:09:27;;;;;;;5.43;3.97;;;;;;;17.43;100.00;99519.41;10496251;28;20178;-76
2021/06/09 22:14:47;;;;;;;5.77;4.27;;;;;;;17.54;100.00;99520.69;10495714;28;20571;-76
2021/06/09 22:20:08;;;;;;;6.03;4.37;;;;;;;17.63;100.00;99512.53;10496364;28;20198;-76
2021/06/09 22:25:27;;;;;;;5.83;3.57;;;;;;;17.39;100.00;99507.59;10494851;28;20178;-75
2021/06/09 22:30:46;;;;;;;7.20;4.80;;;;;;;17.16;100.00;99516.06;10496982;28;20575;-75
2021/06/09 22:36:06;;;;;;;5.63;4.03;;;;;;;17.06;100.00;99511.53;10495200;28;20222;-75
2021/06/09 22:41:25;;;;;;;6.50;4.67;;;;;;;17.04;100.00;99509.16;10495595;28;20187;-75
2021/06/09 22:46:44;;;;;;;6.30;4.30;;;;;;;17.03;100.00;99509.59;10496637;28;20254;-75
2021/06/09 22:52:04;;;;;;;8.23;5.53;;;;;;;17.19;100.00;99506.84;10495168;28;20676;-77
2021/06/09 22:57:26;;;;;;;8.07;4.83;;;;;;;16.98;100.00;99510.88;10496734;28;20175;-75
2021/06/09 23:02:45;;;;;;;8.83;5.20;;;;;;;16.99;100.00;99509.69;10496528;28;20208;-75
2021/06/09 23:08:04;;;;;;;5.27;3.63;;;;;;;16.74;100.00;99513.44;10495149;28;20235;-75
2021/06/09 23:13:27;;;;;;;6.37;4.13;;;;;;;16.71;100.00;99514.31;10498351;28;20676;-75
2021/06/09 23:18:46;;;;;;;6.87;4.30;;;;;;;16.77;100.00;99509.81;10502759;28;20548;-74
2021/06/09 23:24:06;;;;;;;4.27;3.80;;;;;;;16.54;100.00;99512.69;10502099;28;20179;-74
2021/06/09 23:29:25;;;;;;;4.10;3.70;;;;;;;16.46;100.00;99514.81;10502570;28;20182;-75
2021/06/09 23:34:44;;;;;;;7.30;5.07;;;;;;;16.41;100.00;99511.75;10502403;28;20222;-75
2021/06/09 23:40:07;;;;;;;6.70;5.13;;;;;;;16.37;100.00;99509.03;10501477;28;20186;-75
2021/06/09 23:45:26;;;;;;;7.13;5.50;;;;;;;16.29;100.00;99509.63;10502709;28;20216;-75
2021/06/09 23:56:11;;;;;;;9.10;4.93;;;;;;;16.24;100.00;99498.97;10500402;28;20175;-77
